Time;durP1;ratioP1;P1;durP2;ratioP2;P2;SDS_P1;SDS_P2;PMS_P1;PMS_P2;Temp;Humidity;BMP_temperature;BMP_pressure;BME280_temperature;BME280_humidity;BME280_pressure;Samples;Min_cycle;Max_cycle;Signal;HPM_P1;HPM_P2
2022/05/30 00:00:50;;;;;;;4.68;1.70;;;;;;;19.38;48.25;97535.66;5413491;26;20076;-77
2022/05/30 00:03:19;;;;;;;5.05;1.85;;;;;;;19.15;48.78;97540.28;5414062;26;20090;-77
2022/05/30 00:05:49;;;;;;;4.40;2.00;;;;;;;19.31;48.37;97537.97;5393904;26;20055;-77
2022/05/30 00:08:17;;;;;;;4.37;1.95;;;;;;;18.56;50.68;97526.97;5413288;26;20051;-77
2022/05/30 00:10:44;;;;;;;4.10;1.80;;;;;;;18.95;49.78;97525.44;5413861;26;20060;-77
2022/05/30 00:13:12;;;;;;;4.87;2.05;;;;;;;18.85;50.09;97532.41;5413605;26;20084;-77
2022/05/30 00:15:39;;;;;;;4.95;1.87;;;;;;;18.00;52.55;97533.28;5413578;26;20067;-77
2022/05/30 00:18:09;;;;;;;5.78;1.95;;;;;;;18.12;51.94;97534.06;5413551;26;20799;-77
2022/05/30 00:20:37;;;;;;;3.12;1.80;;;;;;;18.87;49.87;97535.72;5413343;26;20057;-77
2022/05/30 00:23:04;;;;;;;3.30;1.85;;;;;;;19.00;49.80;97531.09;5413897;26;20056;-77
2022/05/30 00:25:31;;;;;;;3.37;1.77;;;;;;;18.67;50.57;97533.00;5413737;26;20397;-77
2022/05/30 00:27:58;;;;;;;4.37;1.70;;;;;;;18.81;50.68;97526.59;5413227;26;20110;-77
2022/05/30 00:30:25;;;;;;;2.80;1.60;;;;;;;18.57;49.67;97532.06;5413602;26;20102;-77
2022/05/30 00:32:52;;;;;;;3.87;1.70;;;;;;;18.25;50.24;97518.22;5393470;26;20068;-77
2022/05/30 00:35:19;;;;;;;3.53;1.70;;;;;;;18.91;48.90;97524.84;5413391;26;20073;-77
2022/05/30 00:37:46;;;;;;;5.70;1.83;;;;;;;18.71;49.39;97520.47;5413475;26;20126;-77
2022/05/30 00:40:13;;;;;;;3.33;1.60;;;;;;;19.13;48.30;97518.63;5413554;26;20452;-77
2022/05/30 00:42:40;;;;;;;5.75;1.77;;;;;;;18.93;48.38;97519.53;5413246;26;20074;-77
2022/05/30 00:45:08;;;;;;;3.75;1.55;;;;;;;18.90;48.76;97509.31;5413607;26;20059;-77
2022/05/30 00:47:35;;;;;;;4.18;1.77;;;;;;;19.10;47.96;97505.00;5413572;26;20099;-77
2022/05/30 00:50:02;;;;;;;4.40;1.85;;;;;;;19.23;47.51;97506.41;5413075;26;20464;-77
2022/05/30 00:52:34;;;;;;;3.55;1.90;;;;;;;19.01;47.75;97509.22;5413551;26;20569;-77
2022/05/30 00:55:12;;;;;;;3.75;1.60;;;;;;;19.02;47.01;97501.25;5393472;26;20123;-77
2022/05/30 00:57:42;;;;;;;3.97;1.77;;;;;;;19.25;45.90;97499.28;5413082;26;20075;-77
2022/05/30 01:00:17;;;;;;;2.78;1.40;;;;;;;19.06;45.93;97493.97;5413364;26;20108;-77
2022/05/30 01:02:44;;;;;;;5.30;1.58;;;;;;;18.86;46.55;97507.94;5413201;26;20128;-77
2022/05/30 01:08:02;;;;;;;2.45;1.40;;;;;;;18.93;46.70;97496.81;5397416;26;20102;-77
2022/05/30 01:10:33;;;;;;;3.05;1.50;;;;;;;19.60;44.77;97498.03;5414092;26;20126;-77
2022/05/30 01:13:00;;;;;;;3.50;1.40;;;;;;;18.73;46.92;97492.47;5414459;26;20108;-77
2022/05/30 01:15:29;;;;;;;2.33;1.40;;;;;;;19.49;45.24;97479.78;5414012;26;20365;-77
2022/05/30 01:18:07;;;;;;;3.42;1.50;;;;;;;19.25;45.71;97488.00;5413882;26;20071;-77
2022/05/30 01:21:06;;;;;;;6.15;1.50;;;;;;;19.16;46.10;97494.84;5394314;26;20138;-77
2022/05/30 01:23:43;;;;;;;3.67;1.60;;;;;;;18.86;46.62;97487.00;5383090;26;20068;-77
2022/05/30 01:26:31;;;;;;;3.95;1.70;;;;;;;18.96;46.36;97488.72;5394371;26;20108;-77
2022/05/30 01:28:58;;;;;;;;;;;;;;;18.87;46.81;97486.88;5394578;26;20106;-77
2022/05/30 01:31:25;;;;;;;2.58;1.40;;;;;;;19.02;46.61;97485.56;5414090;26;20002;-77
2022/05/30 01:33:52;;;;;;;3.85;1.40;;;;;;;18.93;46.96;97472.47;5414446;26;20080;-77
2022/05/30 01:36:28;;;;;;;4.65;1.50;;;;;;;18.98;46.81;97470.28;5414506;26;20402;-77
2022/05/30 01:38:55;;;;;;;3.33;1.60;;;;;;;19.45;45.56;97467.94;5413757;26;20122;-77
2022/05/30 01:41:22;;;;;;;2.58;1.27;;;;;;;20.02;43.57;97469.81;5414459;26;20107;-77
2022/05/30 01:43:49;;;;;;;3.15;1.50;;;;;;;18.66;46.55;97475.63;5394325;26;20106;-77
2022/05/30 01:46:21;;;;;;;3.70;1.50;;;;;;;19.23;46.14;97476.81;5414203;26;20106;-77
2022/05/30 01:48:49;;;;;;;2.80;1.17;;;;;;;18.51;46.66;97480.34;5414295;26;20393;-77
2022/05/30 01:51:18;;;;;;;5.75;1.60;;;;;;;18.14;48.52;97486.00;5414389;26;20063;-77
2022/05/30 01:53:46;;;;;;;3.78;1.50;;;;;;;18.29;48.14;97478.69;5414158;26;20111;-77
2022/05/30 01:56:14;;;;;;;2.12;1.30;;;;;;;18.92;47.14;97489.09;5414459;26;20069;-77
2022/05/30 01:58:42;;;;;;;4.47;1.60;;;;;;;18.89;47.09;97495.41;5413717;26;20051;-77
2022/05/30 02:01:18;;;;;;;6.62;1.50;;;;;;;18.82;46.75;97488.22;5414273;26;20075;-77
2022/05/30 02:03:48;;;;;;;4.72;1.52;;;;;;;18.42;48.16;97483.72;5414546;26;20410;-77
2022/05/30 02:06:15;;;;;;;3.85;1.50;;;;;;;18.00;49.16;97478.47;5413967;26;20070;-77
2022/05/30 02:08:42;;;;;;;2.58;1.33;;;;;;;18.43;48.16;97480.16;5394021;26;20058;-77
2022/05/30 02:11:10;;;;;;;3.62;1.52;;;;;;;18.70;47.64;97488.31;5414286;26;20424;-77
2022/05/30 02:13:38;;;;;;;2.70;1.30;;;;;;;18.33;47.63;97480.09;5413826;26;20063;-77
2022/05/30 02:18:53;;;;;;;4.78;1.25;;;;;;;18.57;47.51;97485.03;5414068;26;20049;-77
2022/05/30 02:21:20;;;;;;;2.30;1.05;;;;;;;19.07;46.42;97487.78;5393549;26;20063;-77
2022/05/30 02:23:47;;;;;;;2.42;1.40;;;;;;;18.91;46.99;97488.25;5414460;26;20087;-77
2022/05/30 02:26:13;;;;;;;3.70;1.50;;;;;;;19.12;45.99;97482.97;5414360;26;20065;-77
2022/05/30 02:28:41;;;;;;;3.28;1.48;;;;;;;19.29;45.92;97484.16;5413815;26;20068;-77
2022/05/30 02:31:08;;;;;;;5.12;1.85;;;;;;;18.53;48.28;97485.44;5414168;26;20087;-77
2022/05/30 02:36:39;;;;;;;4.28;1.58;;;;;;;18.39;48.57;97494.41;5414354;26;20114;-77
2022/05/30 02:39:08;;;;;;;2.87;1.50;;;;;;;18.90;47.68;97498.84;5414171;26;20057;-77
2022/05/30 02:41:35;;;;;;;3.10;1.45;;;;;;;18.27;48.99;97490.19;5393679;26;20115;-77
2022/05/30 02:44:03;;;;;;;4.32;1.67;;;;;;;18.82;47.66;97496.91;5393981;26;20135;-77
2022/05/30 02:46:30;;;;;;;3.83;1.65;;;;;;;18.37;48.21;97501.53;5414319;26;20090;-77
2022/05/30 02:48:57;;;;;;;3.33;1.40;;;;;;;18.77;47.61;97512.12;5413670;26;20095;-77
2022/05/30 02:51:25;;;;;;;4.12;1.70;;;;;;;19.09;46.42;97517.25;5414162;26;20468;-77
2022/05/30 02:53:52;;;;;;;5.47;1.70;;;;;;;18.43;48.44;97508.87;5414255;26;20066;-77
2022/05/30 02:56:19;;;;;;;1.77;1.30;;;;;;;18.35;48.51;97512.12;5413728;26;20122;-77
2022/05/30 02:58:47;;;;;;;3.47;1.33;;;;;;;18.45;48.30;97509.56;5413993;26;20064;-77
2022/05/30 03:01:14;;;;;;;5.10;1.40;;;;;;;18.72;47.54;97509.09;5414064;26;20108;-77
2022/05/30 03:03:42;;;;;;;4.43;1.55;;;;;;;18.38;48.57;97511.03;5413887;26;20094;-77
2022/05/30 03:06:10;;;;;;;2.00;1.20;;;;;;;18.72;48.35;97509.09;5414190;26;20406;-77
2022/05/30 03:08:37;;;;;;;3.25;1.60;;;;;;;18.94;47.54;97503.72;5393496;26;20097;-77
2022/05/30 03:11:04;;;;;;;5.07;1.65;;;;;;;19.37;45.86;97513.91;5414003;26;20061;-77
2022/05/30 03:13:31;;;;;;;3.40;1.50;;;;;;;19.41;45.31;97514.47;5383174;26;285340;-77
2022/05/30 03:15:58;;;;;;;2.35;1.40;;;;;;;19.00;46.48;97520.66;5413440;26;20119;-77
2022/05/30 03:18:26;;;;;;;2.90;1.30;;;;;;;19.14;45.75;97519.44;5413928;26;20051;-77
2022/05/30 03:20:53;;;;;;;4.22;1.58;;;;;;;18.94;46.79;97519.41;5414015;26;20107;-77
2022/05/30 03:23:20;;;;;;;4.37;1.80;;;;;;;19.01;46.65;97524.91;5393414;26;20363;-77
2022/05/30 03:25:47;;;;;;;4.57;1.40;;;;;;;18.85;47.60;97516.72;5414180;26;20115;-77
2022/05/30 03:28:15;;;;;;;4.22;1.40;;;;;;;18.91;47.50;97513.56;5413393;26;20103;-77
2022/05/30 03:30:42;;;;;;;4.28;1.40;;;;;;;18.88;47.60;97513.84;5413533;26;20051;-77
2022/05/30 03:33:09;;;;;;;4.37;1.50;;;;;;;19.95;45.12;97521.06;5413983;26;20104;-77
2022/05/30 03:35:37;;;;;;;4.62;1.58;;;;;;;19.18;46.84;97513.84;5393980;26;20064;-77
2022/05/30 03:38:05;;;;;;;3.35;1.45;;;;;;;19.72;45.17;97525.72;5413444;26;20115;-77
2022/05/30 03:40:32;;;;;;;2.42;1.30;;;;;;;19.99;43.59;97529.47;5393964;26;20100;-77
2022/05/30 03:42:59;;;;;;;4.05;1.50;;;;;;;20.09;43.04;97530.31;5413916;26;20127;-77
2022/05/30 03:45:26;;;;;;;2.30;1.25;;;;;;;20.02;43.09;97531.84;5413695;26;20059;-77
2022/05/30 03:47:53;;;;;;;2.90;1.40;;;;;;;19.67;44.41;97541.00;5413876;26;20048;-77
2022/05/30 03:50:24;;;;;;;2.45;1.50;;;;;;;19.79;44.53;97539.13;5413790;26;20110;-77
2022/05/30 03:53:04;;;;;;;3.73;1.40;;;;;;;19.26;46.17;97555.88;5413729;26;20070;-77
2022/05/30 03:55:37;;;;;;;3.53;1.40;;;;;;;19.55;45.13;97540.28;5414114;26;20055;-77
2022/05/30 03:58:05;;;;;;;3.03;1.45;;;;;;;19.62;44.63;97548.44;5413507;26;20557;-77
2022/05/30 04:00:33;;;;;;;6.43;1.70;;;;;;;19.50;44.97;97539.00;5413719;26;20103;-77
2022/05/30 04:03:02;;;;;;;3.53;1.65;;;;;;;19.26;45.62;97537.56;5413821;26;20051;-76
2022/05/30 04:05:29;;;;;;;3.62;1.40;;;;;;;18.13;48.45;97528.72;5413467;26;20055;-76
2022/05/30 04:07:57;;;;;;;2.65;1.42;;;;;;;18.16;49.55;97538.09;5393657;26;20107;-79
2022/05/30 04:10:25;;;;;;;3.40;1.37;;;;;;;18.05;50.12;97540.75;5413740;26;20123;-79
2022/05/30 04:13:00;;;;;;;3.75;1.40;;;;;;;18.90;46.93;97545.91;5414755;26;20123;-80
2022/05/30 04:15:27;;;;;;;5.10;1.40;;;;;;;19.49;44.86;97550.44;5414325;26;20067;-80
2022/05/30 04:17:54;;;;;;;3.40;1.60;;;;;;;19.31;45.77;97543.22;5414582;26;20030;-80
2022/05/30 04:20:21;;;;;;;3.25;1.35;;;;;;;19.37;45.59;97547.94;5414070;26;20131;-80
2022/05/30 04:22:48;;;;;;;2.75;1.40;;;;;;;19.33;45.57;97550.91;5414892;26;20107;-80
2022/05/30 04:25:15;;;;;;;4.18;1.40;;;;;;;19.27;46.26;97544.44;5414723;26;20058;-80
2022/05/30 04:27:43;;;;;;;1.85;1.10;;;;;;;19.83;43.80;97548.34;5414350;26;20122;-80
2022/05/30 04:30:10;;;;;;;2.42;1.30;;;;;;;19.79;43.72;97552.19;5414736;26;20106;-80
2022/05/30 04:32:37;;;;;;;3.17;1.20;;;;;;;19.90;43.43;97550.28;5414796;26;20064;-80
2022/05/30 04:35:07;;;;;;;2.75;1.12;;;;;;;20.29;42.93;97546.84;5414383;26;20114;-80
2022/05/30 04:37:35;;;;;;;2.60;1.33;;;;;;;20.48;42.92;97559.97;5414374;26;20130;-80
2022/05/30 04:40:03;;;;;;;2.20;1.10;;;;;;;20.10;43.87;97559.00;5414634;26;20027;-80
2022/05/30 04:42:33;;;;;;;1.98;1.27;;;;;;;19.91;43.97;97561.59;5415389;26;20078;-80
2022/05/30 04:45:00;;;;;;;3.17;1.45;;;;;;;19.91;44.32;97556.34;5415834;26;20111;-80
2022/05/30 04:47:26;;;;;;;4.22;1.27;;;;;;;19.10;46.45;97570.37;5415154;26;20103;-80
2022/05/30 04:49:53;;;;;;;1.77;1.15;;;;;;;18.98;47.16;97560.00;5415765;26;20122;-80
2022/05/30 04:52:20;;;;;;;3.60;1.50;;;;;;;19.05;47.11;97562.94;5415541;26;20070;-80
2022/05/30 04:54:47;;;;;;;4.35;1.62;;;;;;;19.42;46.43;97571.06;5415106;26;20065;-80
2022/05/30 04:57:14;;;;;;;3.08;1.30;;;;;;;19.24;47.03;97576.06;5415819;26;20122;-80
2022/05/30 04:59:42;;;;;;;3.08;1.20;;;;;;;19.99;44.50;97571.34;5415321;26;20103;-80
2022/05/30 05:02:09;;;;;;;2.55;1.33;;;;;;;20.36;43.05;97572.38;5415253;26;20458;-80
2022/05/30 05:04:39;;;;;;;6.50;1.77;;;;;;;20.28;43.33;97584.50;5415804;26;20073;-80
2022/05/30 05:07:09;;;;;;;4.85;1.20;;;;;;;19.72;45.20;97588.53;5415615;26;20048;-80
2022/05/30 05:09:40;;;;;;;4.57;1.35;;;;;;;20.03;44.78;97588.47;5414675;26;20063;-80
2022/05/30 05:12:07;;;;;;;2.62;1.35;;;;;;;20.33;43.72;97584.94;5415439;26;20516;-80
2022/05/30 05:14:34;;;;;;;2.87;1.30;;;;;;;20.10;44.83;97581.75;5415124;26;20079;-80
2022/05/30 05:17:01;;;;;;;3.15;1.42;;;;;;;19.67;45.79;97589.88;5414855;26;20135;-80
2022/05/30 05:19:30;;;;;;;3.15;1.45;;;;;;;20.21;44.67;97581.62;5414942;26;20062;-80
2022/05/30 05:21:57;;;;;;;2.17;1.30;;;;;;;19.39;46.09;97580.97;5415063;26;20394;-80
2022/05/30 05:24:25;;;;;;;2.58;1.30;;;;;;;20.25;44.27;97584.78;5415033;26;20059;-80
2022/05/30 05:26:52;;;;;;;3.35;1.30;;;;;;;20.59;41.25;97604.38;5414831;26;20435;-81
2022/05/30 05:29:19;;;;;;;3.80;1.23;;;;;;;20.34;41.27;97600.50;5414612;26;20099;-80
2022/05/30 05:31:46;;;;;;;4.62;1.40;;;;;;;19.64;44.33;97604.91;5418582;26;20094;-80
2022/05/30 05:34:15;;;;;;;2.90;1.20;;;;;;;19.58;44.33;97602.00;5416362;26;20453;-80
2022/05/30 05:36:46;;;;;;;2.87;1.10;;;;;;;19.99;44.69;97608.03;5414500;26;20074;-80
2022/05/30 05:39:17;;;;;;;3.05;1.12;;;;;;;20.24;43.85;97607.53;5414663;26;20054;-80
2022/05/30 05:41:45;;;;;;;2.20;1.30;;;;;;;20.15;44.60;97605.72;5415205;26;20090;-80
2022/05/30 05:44:13;;;;;;;1.65;1.08;;;;;;;20.08;44.33;97608.03;5414785;26;20122;-81
2022/05/30 05:46:41;;;;;;;3.90;1.45;;;;;;;19.91;44.09;97603.47;5415229;26;20453;-80
2022/05/30 05:49:09;;;;;;;3.37;1.20;;;;;;;20.69;42.65;97601.75;5416658;26;20020;-79
2022/05/30 05:51:38;;;;;;;5.25;1.83;;;;;;;20.74;42.32;97594.31;5415066;26;20481;-80
2022/05/30 05:54:06;;;;;;;3.25;1.40;;;;;;;21.51;41.14;97595.94;5395937;26;20058;-80
2022/05/30 05:56:34;;;;;;;4.90;1.45;;;;;;;22.20;40.18;97598.88;5415865;26;20058;-80
2022/05/30 05:59:01;;;;;;;1.87;1.30;;;;;;;22.32;40.52;97615.25;5412343;26;20094;-81
2022/05/30 06:01:31;;;;;;;2.33;1.23;;;;;;;22.26;40.64;97623.75;5416472;26;20114;-81
2022/05/30 06:04:03;;;;;;;7.15;1.62;;;;;;;22.18;40.04;97623.66;5412716;26;20055;-82
2022/05/30 06:06:31;;;;;;;6.37;1.60;;;;;;;22.19;40.54;97633.19;5413333;26;20096;-81
2022/05/30 06:09:04;;;;;;;3.78;1.42;;;;;;;22.36;40.70;97628.94;5413476;26;20052;-81
2022/05/30 06:11:33;;;;;;;6.07;1.48;;;;;;;21.89;41.40;97632.47;5413168;26;20070;-81
2022/05/30 06:14:00;;;;;;;10.52;1.70;;;;;;;21.76;41.94;97631.19;5412592;26;20055;-83
2022/05/30 06:16:32;;;;;;;2.25;1.20;;;;;;;22.47;41.13;97633.97;5413459;26;20111;-82
2022/05/30 06:19:02;;;;;;;2.53;1.25;;;;;;;23.05;39.17;97634.28;5413761;26;20030;-81
2022/05/30 06:21:30;;;;;;;4.22;1.20;;;;;;;22.47;40.62;97640.03;5393867;26;20102;-82
2022/05/30 06:24:00;;;;;;;3.08;1.37;;;;;;;23.20;39.76;97652.19;5413620;26;20397;-80
2022/05/30 06:26:27;;;;;;;2.33;1.33;;;;;;;23.64;38.27;97652.97;5413475;26;20107;-83
2022/05/30 06:28:58;;;;;;;1.87;1.15;;;;;;;23.83;37.71;97644.00;5412952;26;20055;-83
2022/05/30 06:31:28;;;;;;;11.18;2.40;;;;;;;23.84;38.40;97651.75;5413298;26;20032;-83
2022/05/30 06:33:56;;;;;;;6.30;1.85;;;;;;;24.24;36.88;97643.16;5412632;26;20070;-83
2022/05/30 06:36:25;;;;;;;4.85;1.42;;;;;;;25.13;35.49;97636.34;5414474;26;20318;-82
2022/05/30 06:39:02;;;;;;;1.95;1.12;;;;;;;25.12;33.66;97629.41;5395334;26;20058;-81
2022/05/30 06:41:32;;;;;;;2.00;1.10;;;;;;;26.24;28.55;97637.13;5414885;26;20055;-82
2022/05/30 06:44:04;;;;;;;7.47;1.00;;;;;;;26.24;26.95;97623.06;5415759;26;20123;-82
2022/05/30 06:46:33;;;;;;;2.95;1.25;;;;;;;26.14;27.16;97636.50;5416460;26;20608;-82
2022/05/30 06:49:01;;;;;;;4.03;1.35;;;;;;;25.36;28.23;97632.00;5415437;26;20020;-82
2022/05/30 06:51:29;;;;;;;2.08;1.20;;;;;;;25.53;29.43;97630.16;5415418;26;20079;-81
2022/05/30 06:53:56;;;;;;;7.18;1.20;;;;;;;24.97;30.91;97623.94;5412438;26;20119;-78
2022/05/30 06:56:27;;;;;;;3.17;1.20;;;;;;;25.09;29.93;97621.81;5412949;26;20063;-78
2022/05/30 06:58:55;;;;;;;2.37;1.23;;;;;;;;;;5412584;26;20090;-78
2022/05/30 07:01:24;;;;;;;2.92;1.30;;;;;;;23.97;30.53;97618.84;5413074;26;20117;-78
2022/05/30 07:03:52;;;;;;;3.25;1.20;;;;;;;25.03;29.86;97620.66;5412476;26;20409;-78
2022/05/30 07:06:21;;;;;;;5.12;1.35;;;;;;;25.27;29.81;97626.91;5413493;26;20123;-78
2022/05/30 07:08:48;;;;;;;3.35;1.30;;;;;;;24.23;30.08;97620.38;5412551;26;20048;-78
2022/05/30 07:11:18;;;;;;;2.10;1.30;;;;;;;24.87;29.35;97623.28;5413276;26;20114;-78
2022/05/30 07:13:46;;;;;;;2.03;1.10;;;;;;;23.67;33.10;97628.94;5412526;26;20073;-79
2022/05/30 07:16:13;;;;;;;2.97;1.10;;;;;;;23.52;32.79;97633.94;5412538;26;20071;-79
2022/05/30 07:18:43;;;;;;;2.17;0.98;;;;;;;22.80;33.75;97638.53;5412839;26;20043;-79
2022/05/30 07:21:15;;;;;;;2.40;1.25;;;;;;;23.55;32.22;97648.59;5413198;26;20115;-79
2022/05/30 07:23:42;;;;;;;3.62;1.30;;;;;;;23.14;33.23;97644.88;5412536;26;20371;-78
2022/05/30 07:26:19;;;;;;;4.68;1.20;;;;;;;22.85;33.17;97639.91;5413192;26;20387;-79
2022/05/30 07:28:48;;;;;;;4.15;1.23;;;;;;;22.58;34.06;97635.53;5412713;26;20051;-79
2022/05/30 07:31:17;;;;;;;2.78;1.30;;;;;;;23.43;32.99;97644.59;5413258;26;20106;-79
2022/05/30 07:33:46;;;;;;;1.98;1.10;;;;;;;23.97;30.93;97643.38;5412829;26;20330;-81
2022/05/30 07:36:16;;;;;;;2.65;1.23;;;;;;;25.15;30.49;97654.63;5414093;26;20074;-80
2022/05/30 07:38:43;;;;;;;2.58;1.17;;;;;;;24.24;31.22;97666.03;5413804;26;20512;-81
2022/05/30 07:41:10;;;;;;;3.42;1.10;;;;;;;25.82;29.77;97669.19;5413717;26;20439;-81
2022/05/30 07:43:37;;;;;;;5.00;1.30;;;;;;;25.08;31.00;97675.59;5412227;26;20086;-81
2022/05/30 07:46:09;;;;;;;3.75;1.45;;;;;;;25.02;31.50;97663.91;5414558;26;20553;-81
2022/05/30 07:48:37;;;;;;;3.25;1.10;;;;;;;24.96;32.21;97656.59;5413044;26;20458;-82
2022/05/30 07:51:05;;;;;;;3.20;1.20;;;;;;;23.52;34.11;97643.66;5413169;26;20327;-82
2022/05/30 07:53:32;;;;;;;3.37;1.30;;;;;;;24.80;32.45;97646.06;5412623;26;20517;-82
2022/05/30 07:56:00;;;;;;;3.53;1.25;;;;;;;24.67;33.67;97646.56;5413638;26;20086;-82
2022/05/30 07:58:28;;;;;;;4.32;1.35;;;;;;;24.36;33.90;97648.97;5412190;26;20048;-81
2022/05/30 08:00:54;;;;;;;2.33;1.12;;;;;;;24.15;34.07;97646.75;5411869;26;20107;-83
2022/05/30 08:03:23;;;;;;;4.03;1.23;;;;;;;24.66;33.22;97646.69;5411644;26;20086;-82
2022/05/30 08:05:50;;;;;;;1.40;1.00;;;;;;;24.88;32.22;97656.59;5411146;26;20368;-82
2022/05/30 08:08:18;;;;;;;2.65;1.40;;;;;;;24.49;33.17;97653.78;5412444;26;20110;-82
2022/05/30 08:10:46;;;;;;;3.62;1.30;;;;;;;24.48;33.51;97652.94;5393245;26;20120;-82
2022/05/30 08:13:13;;;;;;;3.92;1.17;;;;;;;24.45;33.43;97662.97;5416086;26;20126;-82
2022/05/30 08:15:40;;;;;;;5.30;1.20;;;;;;;23.41;35.94;97664.97;5413719;26;20464;-82
2022/05/30 08:18:07;;;;;;;2.05;1.30;;;;;;;23.84;34.95;97661.47;5394378;26;20020;-82
2022/05/30 08:20:34;;;;;;;2.65;1.17;;;;;;;23.98;34.53;97663.47;5392719;26;20090;-82
2022/05/30 08:23:01;;;;;;;3.30;1.23;;;;;;;23.74;34.41;97674.75;5412441;26;20138;-82
2022/05/30 08:25:28;;;;;;;6.75;1.30;;;;;;;24.47;32.65;97668.94;5412904;26;20061;-82
2022/05/30 08:27:55;;;;;;;2.62;1.52;;;;;;;23.77;35.55;97668.31;5413287;26;20114;-82
2022/05/30 08:30:23;;;;;;;3.22;1.30;;;;;;;24.07;34.34;97674.88;5412863;26;20767;-82
2022/05/30 08:32:50;;;;;;;2.15;1.02;;;;;;;23.72;34.64;97671.44;5411989;26;20107;-82
2022/05/30 08:35:23;;;;;;;2.33;1.20;;;;;;;23.93;34.99;97689.50;5413174;26;20133;-82
2022/05/30 08:38:00;;;;;;;2.27;1.00;;;;;;;23.78;35.43;97685.78;5414067;26;20031;-82
2022/05/30 08:43:23;;;;;;;2.12;0.93;;;;;;;24.27;33.36;97680.72;5395154;26;20387;-83
2022/05/30 08:45:54;;;;;;;3.87;1.23;;;;;;;24.32;33.49;97676.63;5393737;26;20086;-82
2022/05/30 08:48:42;;;;;;;2.62;1.20;;;;;;;24.30;33.56;97668.03;5393246;26;20067;-81
2022/05/30 08:51:21;;;;;;;2.60;1.08;;;;;;;23.04;36.04;97655.50;5412958;26;20146;-82
2022/05/30 08:54:07;;;;;;;3.15;1.25;;;;;;;24.31;33.92;97666.25;5411880;26;20059;-82
2022/05/30 08:56:40;;;;;;;3.28;1.30;;;;;;;24.47;34.03;97667.13;5412976;26;20051;-81
2022/05/30 08:59:44;;;;;;;4.25;1.20;;;;;;;24.15;34.16;97680.19;5392279;26;20047;-81
2022/05/30 09:02:30;;;;;;;2.08;1.00;;;;;;;23.88;34.24;97668.87;5412058;26;20848;-81
2022/05/30 09:05:24;;;;;;;1.87;1.10;;;;;;;24.43;31.47;97668.41;5393321;26;20126;-82
2022/05/30 09:08:17;;;;;;;3.05;1.33;;;;;;;24.40;30.11;97675.84;5397423;26;20052;-81
2022/05/30 09:10:55;;;;;;;2.37;1.15;;;;;;;24.33;30.92;97678.28;5414162;26;20452;-81
2022/05/30 09:13:43;;;;;;;3.12;1.20;;;;;;;23.03;34.08;97670.47;5414321;26;20103;-81
2022/05/30 09:16:29;;;;;;;6.20;1.40;;;;;;;22.48;36.01;97667.97;5393620;26;20115;-81
2022/05/30 09:18:58;;;;;;;4.32;1.30;;;;;;;23.13;37.33;97661.66;5414106;26;20101;-81
2022/05/30 09:21:29;;;;;;;3.50;1.35;;;;;;;21.99;39.90;97663.13;5413163;26;20058;-81
2022/05/30 09:23:56;;;;;;;2.33;1.15;;;;;;;22.77;38.84;97666.94;5412206;26;20123;-81
2022/05/30 09:26:27;;;;;;;3.05;1.35;;;;;;;22.98;37.53;97670.13;5412303;26;20071;-81
2022/05/30 09:28:55;;;;;;;6.07;1.42;;;;;;;21.39;40.53;97662.69;5415290;26;20036;-81
2022/05/30 09:31:53;;;;;;;5.53;1.23;;;;;;;20.20;43.41;97662.00;5414182;26;20102;-81
2022/05/30 09:34:35;;;;;;;5.70;1.50;;;;;;;19.96;44.63;97669.34;5414155;26;20454;-81
2022/05/30 09:37:03;;;;;;;3.95;1.42;;;;;;;19.96;43.46;97677.19;5412818;26;20063;-81
2022/05/30 09:39:44;;;;;;;5.87;1.70;;;;;;;21.80;39.75;97683.28;5415069;26;20055;-80
2022/05/30 09:42:32;;;;;;;1.77;1.20;;;;;;;23.05;38.82;97686.09;5395090;26;20142;-80
2022/05/30 09:45:08;;;;;;;2.15;1.33;;;;;;;22.98;37.68;97690.34;5416594;26;20048;-80
2022/05/30 09:47:36;;;;;;;4.50;1.30;;;;;;;22.93;37.84;97693.41;5416799;26;20090;-80
2022/05/30 09:50:15;;;;;;;2.85;1.30;;;;;;;22.32;39.17;97693.25;5414776;26;20071;-80
2022/05/30 09:52:42;;;;;;;2.10;1.30;;;;;;;22.86;38.20;97692.34;5393110;26;20114;-81
2022/05/30 09:55:34;;;;;;;3.75;1.50;;;;;;;22.31;39.23;97691.59;5413986;26;20111;-80
2022/05/30 09:58:02;;;;;;;2.53;1.27;;;;;;;22.95;38.50;97685.34;5395216;26;20064;-80
2022/05/30 10:00:29;;;;;;;2.15;1.05;;;;;;;22.71;39.97;97685.94;5414602;26;20063;-80
2022/05/30 10:03:24;;;;;;;3.85;1.40;;;;;;;22.34;39.64;97700.03;5414843;26;20081;-80
2022/05/30 10:05:51;;;;;;;2.65;1.10;;;;;;;21.82;41.74;97696.25;5415659;26;20111;-80
2022/05/30 10:08:27;;;;;;;2.58;1.20;;;;;;;23.29;37.99;97691.56;5395991;26;20399;-80
2022/05/30 10:10:56;;;;;;;3.45;1.40;;;;;;;22.37;39.10;97705.00;5414017;26;20071;-79
2022/05/30 10:13:35;;;;;;;3.08;1.58;;;;;;;23.17;37.46;97715.63;5413223;26;20464;-80
2022/05/30 10:16:05;;;;;;;2.60;1.35;;;;;;;23.57;37.09;97717.72;5413763;26;20055;-80
2022/05/30 10:18:51;;;;;;;2.42;1.20;;;;;;;24.15;35.55;97720.56;5413139;26;20073;-79
2022/05/30 10:21:27;;;;;;;4.87;1.48;;;;;;;24.04;35.38;97728.75;5413450;26;20126;-79
2022/05/30 10:29:51;;;;;;;2.65;1.17;;;;;;;23.69;37.40;97732.31;5396444;26;20076;-79
2022/05/30 10:32:41;;;;;;;3.75;1.40;;;;;;;23.59;38.04;97739.50;5412144;26;20394;-79
2022/05/30 10:35:27;;;;;;;2.45;1.25;;;;;;;23.15;37.68;97733.38;5368834;26;20380;-79
2022/05/30 10:38:03;;;;;;;5.20;1.42;;;;;;;23.03;38.78;97744.13;5392636;26;20756;-79
2022/05/30 10:40:35;;;;;;;2.50;1.30;;;;;;;22.77;39.70;97745.84;5413364;26;20097;-78
2022/05/30 10:43:24;;;;;;;5.30;1.35;;;;;;;22.32;39.90;97749.28;5412660;26;20057;-79
2022/05/30 10:46:06;;;;;;;6.57;1.42;;;;;;;21.50;41.78;97749.16;5413245;26;20058;-80
2022/05/30 10:48:50;;;;;;;2.67;1.30;;;;;;;22.28;40.99;97755.81;5414377;26;20076;-80
2022/05/30 10:51:25;;;;;;;3.45;1.20;;;;;;;22.48;40.47;97746.84;5394767;26;20073;-81
2022/05/30 10:53:55;;;;;;;3.20;1.35;;;;;;;22.63;40.79;97741.06;5412416;26;20056;-80
2022/05/30 10:56:31;;;;;;;1.92;1.20;;;;;;;23.19;40.81;97740.00;5413779;26;20067;-81
2022/05/30 10:59:22;;;;;;;5.85;1.30;;;;;;;23.26;40.29;97743.66;5413234;26;20118;-81
2022/05/30 11:01:53;;;;;;;2.15;1.20;;;;;;;23.13;39.74;97737.97;5393026;26;20074;-81
2022/05/30 11:04:45;;;;;;;2.72;1.40;;;;;;;22.02;40.33;97742.50;5413784;26;20047;-80
2022/05/30 11:07:12;;;;;;;3.08;1.25;;;;;;;21.67;41.58;97738.72;5415301;26;20056;-82
2022/05/30 11:10:05;;;;;;;3.08;1.30;;;;;;;21.93;40.50;97744.19;5415846;26;20402;-81
2022/05/30 11:12:38;;;;;;;3.10;1.42;;;;;;;21.30;42.47;97737.84;5393755;26;20074;-80
2022/05/30 11:15:30;;;;;;;4.45;1.20;;;;;;;22.74;39.03;97744.31;5393228;26;20059;-80
2022/05/30 11:18:13;;;;;;;4.82;1.30;;;;;;;22.18;41.54;97732.19;5413382;26;20055;-80
2022/05/30 11:20:51;;;;;;;4.30;1.25;;;;;;;22.57;40.57;97734.63;5392682;26;20122;-80
2022/05/30 11:23:18;;;;;;;2.87;1.40;;;;;;;23.31;38.55;97728.25;5392196;26;20079;-80
2022/05/30 11:26:02;;;;;;;4.72;1.37;;;;;;;24.34;35.83;97734.47;5414043;26;20058;-80
2022/05/30 11:28:39;;;;;;;5.57;1.50;;;;;;;23.71;38.17;97742.69;5413327;26;20127;-80
2022/05/30 11:31:21;;;;;;;2.95;1.37;;;;;;;24.62;39.24;97735.88;5394662;26;20749;-80
2022/05/30 11:33:52;;;;;;;3.00;1.48;;;;;;;24.36;37.00;97729.87;5393820;26;20092;-80
2022/05/30 11:36:45;;;;;;;2.53;1.30;;;;;;;25.30;35.41;97724.25;5415060;26;20057;-80
2022/05/30 11:39:31;;;;;;;3.45;1.45;;;;;;;25.60;35.91;97722.72;5415751;26;20122;-80
2022/05/30 11:42:15;;;;;;;3.53;1.40;;;;;;;25.56;34.82;97730.19;5413978;26;20108;-82
2022/05/30 11:44:46;;;;;;;3.47;1.50;;;;;;;25.48;35.91;97716.16;5413778;26;20075;-81
2022/05/30 11:47:28;;;;;;;3.80;1.52;;;;;;;24.72;36.77;97715.47;5393224;26;20415;-81
2022/05/30 11:50:04;;;;;;;3.25;1.95;;;;;;;24.09;39.38;97712.44;5412614;26;20074;-80
2022/05/30 11:53:22;;;;;;;7.53;1.70;;;;;;;23.18;42.69;97709.38;5412213;26;20372;-80
2022/05/30 11:56:01;;;;;;;2.97;1.30;;;;;;;23.72;39.49;97710.97;5362886;26;20449;-79
2022/05/30 11:58:46;;;;;;;4.18;1.70;;;;;;;23.80;39.76;97712.78;5392523;26;20110;-80
2022/05/30 12:01:15;;;;;;;5.80;1.70;;;;;;;23.99;39.22;97707.28;5413015;26;20103;-80
2022/05/30 12:04:05;;;;;;;4.60;1.52;;;;;;;23.71;40.18;97690.84;5391845;26;20063;-81
2022/05/30 12:07:00;;;;;;;2.58;1.40;;;;;;;24.81;36.92;97700.47;5413418;26;20429;-80
2022/05/30 12:09:45;;;;;;;4.60;1.33;;;;;;;23.59;39.56;97716.63;5412864;26;20537;-80
2022/05/30 12:12:37;;;;;;;3.78;1.77;;;;;;;25.19;36.77;97711.38;5412289;26;20604;-80